KEAU/EAU METAR and TAF weather

Enter ICAO airport designator
Station Type Date Time Source
KEAU METAR 2023/12/02 05:56 UTC NOAA

KEAU 020556Z AUTO 00000KT 10SM CLR M08/M09 A3002 RMK AO2 SLP179 T10781094 11028 21083 400281100 53007


Station Type Date Time Source
KEAU Decoded METAR 2023/12/02 05:56 UTC NOAA

EAU CLAIRE CHIPPEWA VALLEY, WI, United States (KEAU) 44-52N 091-29W
Dec 02, 2023 - 12:56 AM EST / 2023.12.02 0556 UTC
Wind: Calm:0
Visibility: 10 mile(s):0
Sky conditions: clear
Temperature: 18.0 F (-7.8 C)
Dew Point: 15.1 F (-9.4 C)
Relative Humidity: 88%
Pressure (altimeter): 30.02 in. Hg (1016 hPa)
Pressure tendency: 0.02 inches (0.7 hPa) higher than three hours ago
ob: KEAU 020556Z AUTO 00000KT 10SM CLR M08/M09 A3002 RMK AO2 SLP179 T10781094 11028 21083 400281100 53007
cycle: 6

Station Type Date Time Source
KEAU TAF 2023/12/02 06:22 UTC NOAA

TAF KEAU 020520Z 0206/0306 00000KT P6SM SCT250
FM021200 10006KT P6SM BKN250
FM021800 14008KT P6SM BKN100
FM030300 13006KT P6SM OVC020

Example: see airport list